Aviation Digital Data Service (ADDS)

Output produced by METARs form (0432 UTC 24 January 2019)
found at http://www.aviationweather.gov/metar/data/
 
Forecast for: WBGB (BINTULU/KALIMANT, MY)
Text: TAF WBGB 232300Z 2400/2500 07005KT 9999 SCT016
Forecast period: 0000 UTC 24 January 2019 to 0000 UTC 25 January 2019
Forecast type: FROM: standard forecast or significant change
Winds: from the ENE (70 degrees) at 6 MPH (5 knots; 2.6 m/s)
Visibility: 6 or more miles 10+ km)
Ceiling: at least 12,000 feet AGL
Clouds: scattered clouds at 1600 feet AGL
Weather: no significant weather forecast for this period
Text: TEMPO 2402/2406 3000 SHRA FEW015CB BKN016
Forecast period: 0200 to 0600 UTC 24 January 2019
Forecast type: TEMPORARY: The following changes expected for less than half the time period
Visibility: 1.86 miles (2.99 km)
Ceiling: 1600 feet AGL
Clouds: few clouds at 1500 feet AGL
broken clouds at 1600 feet AGL
Weather: SHRA  (rain showers)